Time;durP1;ratioP1;P1;durP2;ratioP2;P2;SDS_P1;SDS_P2;PMS_P1;PMS_P2;Temp;Humidity;BMP_temperature;BMP_pressure;BME280_temperature;BME280_humidity;BME280_pressure;Samples;Min_cycle;Max_cycle;Signal;HPM_P1;HPM_P2
2022/05/10 00:00:26;;;;;;;10.23;3.90;;;13.30;64.50;;;;;;4810277;29;20283;-91
2022/05/10 00:02:54;;;;;;;5.40;3.50;;;13.30;64.10;;;;;;4810069;29;20228;-90
2022/05/10 00:05:28;;;;;;;7.40;3.63;;;13.30;64.50;;;;;;4826304;29;20195;-90
2022/05/10 00:07:54;;;;;;;9.63;4.00;;;13.30;64.50;;;;;;4810297;29;20719;-91
2022/05/10 00:10:20;;;;;;;19.27;4.23;;;13.30;64.80;;;;;;4810414;29;20188;-90
2022/05/10 00:12:46;;;;;;;9.47;4.20;;;13.30;64.70;;;;;;4810353;29;20299;-90
2022/05/10 00:15:40;;;;;;;5.00;3.30;;;13.30;65.00;;;;;;4826347;29;20673;-90
2022/05/10 00:18:11;;;;;;;10.87;3.97;;;13.30;64.70;;;;;;4810067;29;20237;-90
2022/05/10 00:20:37;;;;;;;9.50;4.50;;;13.40;64.90;;;;;;4826230;29;20648;-89
2022/05/10 00:23:03;;;;;;;13.87;3.87;;;13.40;64.60;;;;;;4826224;29;20216;-89
2022/05/10 00:25:30;;;;;;;16.23;4.37;;;13.40;64.90;;;;;;4810053;29;20529;-89
2022/05/10 00:27:56;;;;;;;13.10;4.33;;;13.40;64.90;;;;;;4809760;29;20200;-90
2022/05/10 00:30:22;;;;;;;11.13;4.57;;;13.40;65.10;;;;;;4825715;29;20195;-89
2022/05/10 00:32:48;;;;;;;7.57;4.43;;;13.40;65.10;;;;;;4809595;29;20216;-90
2022/05/10 00:35:18;;;;;;;12.20;4.80;;;13.50;65.20;;;;;;4809647;29;20248;-89
2022/05/10 00:37:46;;;;;;;10.73;4.13;;;13.40;65.00;;;;;;4809942;29;20192;-88
2022/05/10 00:40:13;;;;;;;12.17;4.57;;;13.40;65.00;;;;;;4809750;29;20195;-88
2022/05/10 00:43:06;;;;;;;17.03;4.47;;;13.40;64.90;;;;;;4809556;29;20220;-89
2022/05/10 00:45:56;;;;;;;9.30;4.43;;;13.40;65.40;;;;;;4826426;29;20168;-88
2022/05/10 00:48:26;;;;;;;8.40;3.73;;;13.30;65.40;;;;;;4826113;29;20548;-89
2022/05/10 00:51:00;;;;;;;12.50;4.70;;;13.30;65.50;;;;;;4809758;29;20179;-88
2022/05/10 00:53:46;;;;;;;11.97;4.37;;;13.30;65.40;;;;;;4826168;29;20210;-88
2022/05/10 00:56:20;;;;;;;10.83;4.30;;;13.30;65.50;;;;;;4809545;29;20233;-89
2022/05/10 00:59:16;;;;;;;12.43;4.70;;;13.30;65.40;;;;;;4809417;29;20267;-90
2022/05/10 01:01:44;;;;;;;12.13;4.50;;;13.30;65.40;;;;;;4809146;29;20560;-89
2022/05/10 01:04:29;;;;;;;11.07;4.90;;;13.20;65.60;;;;;;4809203;29;20187;-89
2022/05/10 01:07:01;;;;;;;19.83;8.87;;;13.20;65.90;;;;;;4825477;29;20247;-89
2022/05/10 01:09:38;;;;;;;15.93;7.40;;;13.20;66.00;;;;;;4810092;29;20176;-89
2022/05/10 01:12:14;;;;;;;20.50;9.37;;;13.20;66.70;;;;;;4825787;29;20678;-90
2022/05/10 01:14:52;;;;;;;12.67;5.50;;;13.10;66.60;;;;;;4809275;29;20179;-90
2022/05/10 01:17:18;;;;;;;7.47;4.27;;;13.00;66.50;;;;;;4809405;29;20180;-90
2022/05/10 01:19:45;;;;;;;13.67;5.17;;;13.00;66.60;;;;;;4825423;29;20176;-90
2022/05/10 01:22:38;;;;;;;12.37;4.70;;;13.00;66.30;;;;;;4808892;29;20652;-90
2022/05/10 01:25:27;;;;;;;12.70;5.13;;;13.10;66.40;;;;;;4828282;29;20176;-90
2022/05/10 01:28:17;;;;;;;8.23;4.13;;;13.10;66.50;;;;;;4821683;29;20200;-90
2022/05/10 01:30:43;;;;;;;10.93;4.50;;;13.10;66.60;;;;;;4809036;29;20172;-90
2022/05/10 01:33:30;;;;;;;10.13;4.67;;;13.10;66.50;;;;;;4808718;29;20280;-90
2022/05/10 01:36:11;;;;;;;9.33;4.50;;;13.10;66.50;;;;;;4825265;29;20164;-88
2022/05/10 01:39:14;;;;;;;8.37;4.50;;;13.20;66.60;;;;;;4825254;29;20176;-88
2022/05/10 01:41:59;;;;;;;8.70;3.93;;;13.20;66.40;;;;;;4808317;29;20214;-88
2022/05/10 01:44:49;;;;;;;10.80;4.30;;;13.20;66.40;;;;;;4808801;29;20199;-89
2022/05/10 01:47:20;;;;;;;8.37;4.53;;;13.20;66.30;;;;;;4825215;29;20243;-89
2022/05/10 01:49:55;;;;;;;13.07;4.40;;;13.20;66.40;;;;;;4808411;29;20330;-88
2022/05/10 01:52:32;;;;;;;13.10;4.57;;;13.20;66.50;;;;;;4808525;29;20286;-88
2022/05/10 01:55:17;;;;;;;15.37;4.77;;;13.20;66.40;;;;;;4808636;29;20195;-88
2022/05/10 01:57:43;;;;;;;8.53;4.30;;;13.20;66.40;;;;;;4808423;29;20528;-88
2022/05/10 02:00:16;;;;;;;9.67;4.50;;;13.20;66.90;;;;;;4824886;29;20246;-88
2022/05/10 02:02:54;;;;;;;9.37;4.47;;;13.20;67.60;;;;;;4808157;29;20242;-88
2022/05/10 02:05:30;;;;;;;10.23;4.50;;;13.10;68.30;;;;;;4808406;29;20176;-88
2022/05/10 02:08:00;;;;;;;12.50;4.73;;;13.00;68.70;;;;;;4808406;29;20550;-88
2022/05/10 02:10:34;;;;;;;10.93;4.93;;;13.00;68.70;;;;;;4824682;29;20171;-88
2022/05/10 02:13:11;;;;;;;9.07;4.77;;;13.00;68.70;;;;;;4808192;29;20204;-87
2022/05/10 02:16:09;;;;;;;9.67;4.83;;;12.90;69.00;;;;;;4824782;29;20208;-88
2022/05/10 02:18:47;;;;;;;9.07;4.43;;;12.90;68.80;;;;;;4820630;29;20742;-88
2022/05/10 02:21:15;;;;;;;8.27;4.43;;;12.90;68.50;;;;;;4808106;29;20176;-88
2022/05/10 02:23:54;;;;;;;12.07;5.07;;;12.90;68.80;;;;;;4824255;29;20204;-88
2022/05/10 02:26:48;;;;;;;16.40;4.63;;;12.90;69.20;;;;;;4824405;29;20164;-88
2022/05/10 02:29:26;;;;;;;7.50;4.57;;;12.80;69.30;;;;;;4824807;29;20199;-88
2022/05/10 02:34:45;;;;;;;11.03;4.57;;;12.80;68.90;;;;;;4824884;29;20166;-88
2022/05/10 02:37:12;;;;;;;8.87;4.47;;;12.80;68.90;;;;;;4808103;29;20180;-88
2022/05/10 02:39:37;;;;;;;12.10;4.47;;;12.80;69.30;;;;;;4808112;29;20658;-88
2022/05/10 02:42:04;;;;;;;9.57;4.67;;;12.70;69.40;;;;;;4808116;29;20218;-88
2022/05/10 02:44:30;;;;;;;8.80;4.50;;;12.70;69.50;;;;;;4824773;29;20187;-88
2022/05/10 02:46:55;;;;;;;11.07;4.80;;;12.60;69.40;;;;;;4824541;29;20176;-89
2022/05/10 02:49:21;;;;;;;12.13;4.80;;;12.60;69.50;;;;;;4824440;29;20179;-88
2022/05/10 02:51:47;;;;;;;16.43;4.97;;;12.60;69.70;;;;;;4824780;29;20557;-89
2022/05/10 02:54:13;;;;;;;11.50;4.83;;;12.50;70.30;;;;;;4811384;29;20187;-88
2022/05/10 02:56:40;;;;;;;11.07;4.70;;;12.40;71.00;;;;;;4811422;29;20604;-88
2022/05/10 02:59:08;;;;;;;12.30;5.37;;;12.30;71.80;;;;;;4811328;29;20180;-88
2022/05/10 03:01:41;;;;;;;9.10;4.53;;;12.20;72.30;;;;;;4811311;29;20180;-88
2022/05/10 03:04:09;;;;;;;9.73;4.77;;;12.10;72.20;;;;;;4811421;29;20196;-88
2022/05/10 03:06:36;;;;;;;9.90;4.40;;;12.20;72.20;;;;;;4811688;29;20184;-88
2022/05/10 03:09:03;;;;;;;12.23;4.70;;;12.20;72.40;;;;;;4811104;29;20202;-88
2022/05/10 03:11:29;;;;;;;8.77;5.07;;;12.00;72.80;;;;;;4827699;29;20216;-89
2022/05/10 03:13:55;;;;;;;9.87;5.23;;;12.00;73.20;;;;;;4811242;29;20219;-89
2022/05/10 03:16:24;;;;;;;11.97;4.93;;;12.00;73.50;;;;;;4810855;29;20192;-90
2022/05/10 03:18:51;;;;;;;10.93;5.20;;;11.90;73.70;;;;;;4811267;29;20198;-89
2022/05/10 03:21:16;;;;;;;10.73;4.90;;;12.00;73.60;;;;;;4827173;29;20188;-89
2022/05/10 03:23:43;;;;;;;13.37;5.13;;;12.10;73.50;;;;;;4826825;29;20261;-89
2022/05/10 03:26:12;;;;;;;10.17;5.57;;;12.00;73.60;;;;;;4810796;29;20184;-89
2022/05/10 03:28:38;;;;;;;8.17;5.13;;;12.20;73.60;;;;;;4810690;29;20180;-89
2022/05/10 03:31:06;;;;;;;7.77;4.47;;;12.20;73.50;;;;;;4810664;29;20279;-89
2022/05/10 03:33:32;;;;;;;12.83;5.40;;;12.30;73.30;;;;;;4810548;29;20268;-90
2022/05/10 03:35:57;;;;;;;9.57;5.07;;;12.30;73.10;;;;;;4826883;29;20184;-88
2022/05/10 03:38:23;;;;;;;9.87;5.43;;;12.30;73.00;;;;;;4810631;29;20561;-89
2022/05/10 03:40:48;;;;;;;14.07;5.30;;;12.30;72.90;;;;;;4810618;29;20199;-89
2022/05/10 03:43:14;;;;;;;11.47;5.13;;;12.30;73.10;;;;;;4827047;29;20702;-89
2022/05/10 03:45:39;;;;;;;10.40;5.30;;;12.40;73.30;;;;;;4826754;29;20647;-89
2022/05/10 03:48:06;;;;;;;9.93;5.10;;;12.30;73.20;;;;;;4826708;29;20187;-89
2022/05/10 03:50:32;;;;;;;12.77;4.80;;;12.30;73.20;;;;;;4826717;29;20188;-89
2022/05/10 03:52:57;;;;;;;10.03;5.00;;;12.30;73.30;;;;;;4810187;29;20215;-89
2022/05/10 03:55:25;;;;;;;13.63;5.60;;;12.30;73.20;;;;;;4810450;29;20276;-88
2022/05/10 03:57:52;;;;;;;12.07;6.13;;;12.30;73.40;;;;;;4826593;29;20180;-89
2022/05/10 04:00:29;;;;;;;8.53;5.00;;;12.30;73.40;;;;;;4810413;29;20651;-90
2022/05/10 04:02:58;;;;;;;11.90;5.73;;;12.30;73.50;;;;;;4825804;29;20223;-89
2022/05/10 04:05:26;;;;;;;11.07;5.20;;;12.40;73.80;;;;;;4809478;29;20559;-89
2022/05/10 04:07:52;;;;;;;11.67;4.90;;;12.40;73.60;;;;;;4810293;29;20187;-89
2022/05/10 04:10:20;;;;;;;8.30;5.67;;;12.50;73.80;;;;;;4810026;29;20188;-89
2022/05/10 04:12:46;;;;;;;7.50;4.80;;;12.50;74.10;;;;;;4826198;29;20227;-89
2022/05/10 04:15:15;;;;;;;10.40;5.27;;;12.60;74.20;;;;;;4810622;29;20666;-89
2022/05/10 04:17:42;;;;;;;12.27;5.27;;;12.70;74.10;;;;;;4809901;29;20184;-90
2022/05/10 04:20:09;;;;;;;9.27;4.80;;;12.70;74.10;;;;;;4826401;29;20182;-89
2022/05/10 04:22:35;;;;;;;11.63;5.30;;;12.70;74.20;;;;;;4809889;29;20314;-90
2022/05/10 04:25:01;;;;;;;9.63;5.53;;;12.80;74.00;;;;;;4809964;29;20219;-89
2022/05/10 04:27:27;;;;;;;13.53;5.43;;;12.90;74.10;;;;;;4826304;29;20184;-89
2022/05/10 04:29:53;;;;;;;9.83;5.23;;;12.90;74.20;;;;;;4809941;29;20177;-90
2022/05/10 04:32:18;;;;;;;11.33;6.07;;;13.00;73.80;;;;;;4825942;29;20706;-90
2022/05/10 04:34:44;;;;;;;8.97;4.87;;;13.10;73.70;;;;;;4826009;29;20180;-88
2022/05/10 04:37:10;;;;;;;13.10;5.10;;;13.10;73.50;;;;;;4826194;29;20528;-89
2022/05/10 04:42:19;;;;;;;6.73;4.60;;;13.10;73.40;;;;;;4825747;29;20240;-89
2022/05/10 04:44:45;;;;;;;6.50;4.70;;;13.10;73.40;;;;;;4809496;29;20180;-89
2022/05/10 04:47:10;;;;;;;11.90;5.27;;;13.20;73.60;;;;;;4809754;29;20182;-90
2022/05/10 04:49:36;;;;;;;10.60;5.20;;;13.20;73.40;;;;;;4825834;29;20288;-89
2022/05/10 04:52:02;;;;;;;15.43;5.37;;;13.20;73.40;;;;;;4825714;29;20292;-89
2022/05/10 04:54:28;;;;;;;10.87;5.67;;;13.30;73.70;;;;;;4809355;29;20180;-90
2022/05/10 04:56:53;;;;;;;9.67;5.30;;;13.30;73.50;;;;;;4809235;29;20188;-90
2022/05/10 04:59:19;;;;;;;7.90;5.10;;;13.30;73.50;;;;;;4809444;29;20202;-89
2022/05/10 05:01:44;;;;;;;10.63;4.87;;;13.30;73.50;;;;;;4809002;29;20311;-89
2022/05/10 05:04:10;;;;;;;9.93;4.53;;;13.40;73.30;;;;;;4825621;29;20200;-90
2022/05/10 05:06:39;;;;;;;11.93;5.30;;;13.40;73.20;;;;;;4809469;29;20225;-90
2022/05/10 05:09:06;;;;;;;8.47;4.90;;;13.50;73.70;;;;;;4825384;29;20176;-89
2022/05/10 05:11:31;;;;;;;11.13;5.57;;;13.50;73.50;;;;;;4809079;29;20183;-89
2022/05/10 05:13:57;;;;;;;10.80;5.13;;;13.60;73.60;;;;;;4825596;29;20184;-89
2022/05/10 05:16:23;;;;;;;10.10;5.50;;;13.60;73.40;;;;;;4809105;29;20279;-89
2022/05/10 05:18:48;;;;;;;8.57;5.17;;;13.70;73.30;;;;;;4808953;29;20184;-89
2022/05/10 05:21:14;;;;;;;10.33;5.27;;;13.70;73.60;;;;;;4809108;29;20195;-90
2022/05/10 05:23:40;;;;;;;12.47;5.13;;;13.70;73.60;;;;;;4808796;29;20699;-90
2022/05/10 05:26:05;;;;;;;10.07;5.10;;;13.80;73.40;;;;;;4825313;29;20183;-90
2022/05/10 05:28:31;;;;;;;9.07;5.07;;;13.80;73.50;;;;;;4809049;29;20578;-91
2022/05/10 05:30:59;;;;;;;11.57;5.47;;;13.80;73.90;;;;;;4809161;29;20220;-90
2022/05/10 05:33:24;;;;;;;10.83;5.10;;;13.90;74.10;;;;;;4808643;29;20702;-90
2022/05/10 05:35:50;;;;;;;13.10;5.47;;;13.90;73.90;;;;;;4825089;29;20184;-89
2022/05/10 05:38:15;;;;;;;7.17;5.30;;;13.90;74.20;;;;;;4825000;29;20187;-90
2022/05/10 05:40:41;;;;;;;10.10;5.50;;;13.90;74.20;;;;;;4808848;29;20577;-90
2022/05/10 05:43:14;;;;;;;11.57;5.60;;;14.00;74.20;;;;;;4808532;29;20306;-90
2022/05/10 05:45:40;;;;;;;8.70;5.00;;;14.00;74.00;;;;;;4808912;29;20176;-90
2022/05/10 05:48:05;;;;;;;9.33;5.00;;;14.10;74.20;;;;;;4809160;29;20279;-89
2022/05/10 05:50:31;;;;;;;9.77;5.50;;;14.20;74.00;;;;;;4824992;29;20214;-90
2022/05/10 05:52:58;;;;;;;10.80;5.70;;;14.30;73.80;;;;;;4808360;29;20752;-90
2022/05/10 05:55:23;;;;;;;12.43;5.07;;;14.40;74.00;;;;;;4808491;29;20279;-89
2022/05/10 05:57:49;;;;;;;8.77;5.43;;;14.40;73.60;;;;;;4808540;29;20275;-90
2022/05/10 06:00:18;;;;;;;9.60;5.70;;;14.50;73.50;;;;;;4825027;29;20184;-89
2022/05/10 06:02:44;;;;;;;9.63;5.50;;;14.70;73.40;;;;;;4808351;29;20224;-89
2022/05/10 06:05:10;;;;;;;15.13;5.83;;;14.80;73.60;;;;;;4825782;29;20191;-90
2022/05/10 06:07:35;;;;;;;9.63;5.40;;;14.90;72.80;;;;;;4825106;29;20184;-90
2022/05/10 06:10:01;;;;;;;9.57;5.13;;;15.00;72.90;;;;;;4808228;29;20195;-89
2022/05/10 06:12:27;;;;;;;8.83;5.83;;;15.00;72.60;;;;;;4824587;29;20215;-90
2022/05/10 06:14:52;;;;;;;10.93;5.27;;;15.10;73.20;;;;;;4824640;29;20190;-89
2022/05/10 06:17:18;;;;;;;9.83;6.17;;;15.20;73.10;;;;;;4808572;29;20184;-87
2022/05/10 06:19:45;;;;;;;9.50;5.50;;;15.20;73.50;;;;;;4809517;29;20278;-90
2022/05/10 06:22:11;;;;;;;11.80;5.00;;;15.30;73.20;;;;;;4808740;29;20219;-90
2022/05/10 06:24:38;;;;;;;9.10;4.87;;;15.40;72.90;;;;;;4808604;29;20191;-89
2022/05/10 06:27:05;;;;;;;8.93;4.87;;;15.40;72.00;;;;;;4826750;29;20176;-92
2022/05/10 06:29:33;;;;;;;8.00;4.60;;;15.50;72.10;;;;;;4828506;29;20184;-89
2022/05/10 06:31:58;;;;;;;7.73;4.60;;;15.60;72.00;;;;;;4828184;29;20591;-90
2022/05/10 06:34:24;;;;;;;10.90;5.70;;;15.70;71.70;;;;;;4812263;29;20191;-90
2022/05/10 06:36:49;;;;;;;13.97;5.47;;;15.70;71.90;;;;;;4828036;29;20667;-90
2022/05/10 06:39:15;;;;;;;12.13;4.67;;;15.70;71.20;;;;;;4828315;29;20217;-90
2022/05/10 06:41:40;;;;;;;14.00;5.13;;;15.70;71.60;;;;;;4811680;29;20208;-89
2022/05/10 06:44:06;;;;;;;8.67;5.50;;;15.80;72.00;;;;;;4811810;29;20369;-89
2022/05/10 06:46:34;;;;;;;10.63;5.03;;;15.90;71.30;;;;;;4811830;29;20184;-89
2022/05/10 06:49:01;;;;;;;10.77;5.00;;;16.10;71.90;;;;;;4811494;29;20186;-89
2022/05/10 06:51:27;;;;;;;8.98;4.68;;;16.20;71.80;;;;;;4811464;29;20619;-89
2022/05/10 06:53:54;;;;;;;8.95;4.68;;;16.30;70.60;;;;;;4827657;29;20180;-88
2022/05/10 06:56:20;;;;;;;7.25;4.63;;;16.50;70.80;;;;;;4827650;29;20670;-89
2022/05/10 06:58:45;;;;;;;8.15;4.88;;;16.70;70.00;;;;;;4811265;29;20192;-90
2022/05/10 07:01:12;;;;;;;13.73;5.47;;;16.80;70.10;;;;;;4811276;29;20180;-89
2022/05/10 07:03:40;;;;;;;8.77;4.50;;;17.00;70.30;;;;;;4827399;29;20212;-90
2022/05/10 07:06:08;;;;;;;10.95;5.45;;;17.00;69.10;;;;;;4827583;29;20255;-89
2022/05/10 07:08:34;;;;;;;11.13;4.35;;;17.10;68.90;;;;;;4827218;29;20180;-89
2022/05/10 07:11:00;;;;;;;12.43;5.60;;;17.30;69.40;;;;;;4827347;29;20603;-89
2022/05/10 07:13:29;;;;;;;9.98;4.90;;;17.30;69.10;;;;;;4811186;29;20204;-89
2022/05/10 07:15:55;;;;;;;10.40;4.95;;;17.50;67.90;;;;;;4827534;29;20199;-89
2022/05/10 07:18:21;;;;;;;9.95;5.03;;;17.60;67.90;;;;;;4827574;29;20574;-91
2022/05/10 07:20:49;;;;;;;6.60;4.65;;;17.70;66.00;;;;;;4812460;29;20192;-90
2022/05/10 07:23:18;;;;;;;9.82;4.97;;;17.80;66.80;;;;;;4827287;29;20200;-90
2022/05/10 07:25:44;;;;;;;6.35;4.90;;;17.80;66.00;;;;;;4827635;29;20172;-90
2022/05/10 07:28:10;;;;;;;9.32;4.82;;;17.90;65.30;;;;;;4812144;29;20176;-91
2022/05/10 07:30:35;;;;;;;6.45;4.82;;;18.00;65.50;;;;;;4829455;29;20179;-91
2022/05/10 07:33:02;;;;;;;9.40;4.93;;;18.10;64.90;;;;;;4811907;29;20203;-89
2022/05/10 07:38:15;;;;;;;12.30;5.63;;;18.20;65.60;;;;;;4828374;29;20179;-89
2022/05/10 07:40:41;;;;;;;12.05;4.97;;;18.30;65.60;;;;;;4810911;29;20215;-90
2022/05/10 07:43:07;;;;;;;9.23;5.82;;;18.30;66.00;;;;;;4826978;29;20211;-89
2022/05/10 07:45:34;;;;;;;8.25;5.30;;;18.30;65.50;;;;;;4827036;29;20232;-87
2022/05/10 07:47:59;;;;;;;14.57;5.88;;;18.30;64.50;;;;;;4810998;29;20183;-87
2022/05/10 07:50:25;;;;;;;9.77;5.47;;;18.50;64.80;;;;;;4810937;29;20552;-88
2022/05/10 07:52:51;;;;;;;11.68;6.50;;;18.40;63.30;;;;;;4826788;29;20329;-89
2022/05/10 07:55:18;;;;;;;9.32;6.13;;;18.40;63.50;;;;;;4811128;29;20192;-88
2022/05/10 07:57:43;;;;;;;13.93;6.25;;;18.60;64.20;;;;;;4826579;29;20316;-88
2022/05/10 08:00:12;;;;;;;11.15;5.95;;;18.60;64.90;;;;;;4826754;29;20654;-88
2022/05/10 08:02:42;;;;;;;11.85;6.00;;;18.70;64.30;;;;;;4826540;29;20239;-89
2022/05/10 08:05:09;;;;;;;12.43;5.85;;;18.70;63.90;;;;;;4826732;29;20611;-89
2022/05/10 08:07:34;;;;;;;10.35;5.50;;;18.80;63.60;;;;;;4810354;29;20180;-91
2022/05/10 08:10:00;;;;;;;19.52;6.35;;;18.80;63.90;;;;;;4811377;29;20558;-91
2022/05/10 08:12:25;;;;;;;9.18;5.97;;;18.90;62.60;;;;;;4827642;29;20691;-91
2022/05/10 08:14:51;;;;;;;15.13;5.85;;;18.80;63.30;;;;;;4811329;29;20192;-91
2022/05/10 08:17:16;;;;;;;10.88;6.00;;;18.80;62.90;;;;;;4810297;29;20191;-90
2022/05/10 08:19:42;;;;;;;14.32;7.10;;;18.90;63.40;;;;;;4810181;29;20184;-89
2022/05/10 08:22:07;;;;;;;7.05;5.68;;;18.90;63.50;;;;;;4826100;29;20237;-90
2022/05/10 08:24:33;;;;;;;7.90;5.70;;;18.90;63.80;;;;;;4826377;29;20176;-90
2022/05/10 08:26:59;;;;;;;10.65;6.47;;;18.90;64.40;;;;;;4810328;29;20180;-89
2022/05/10 08:29:25;;;;;;;15.75;7.88;;;18.90;63.80;;;;;;4827131;29;20180;-91
2022/05/10 08:31:50;;;;;;;13.27;6.93;;;19.00;64.20;;;;;;4810497;29;20238;-91
2022/05/10 08:34:16;;;;;;;13.30;7.03;;;19.00;63.60;;;;;;4811274;29;20184;-93
2022/05/10 08:36:43;;;;;;;12.30;7.18;;;19.10;63.70;;;;;;4827148;29;20204;-93
2022/05/10 08:39:09;;;;;;;10.43;6.45;;;19.20;64.00;;;;;;4810271;29;20531;-92
2022/05/10 08:41:53;;;;;;;11.85;6.75;;;19.20;63.70;;;;;;4826074;29;20187;-90
2022/05/10 08:44:33;;;;;;;11.63;7.00;;;19.40;62.90;;;;;;4809581;29;20188;-90
2022/05/10 08:47:03;;;;;;;13.57;6.57;;;19.60;63.10;;;;;;4811236;29;20271;-92
2022/05/10 08:49:43;;;;;;;14.02;6.78;;;19.70;62.80;;;;;;4816322;29;20187;-90
2022/05/10 08:52:12;;;;;;;15.73;6.20;;;19.70;62.30;;;;;;4826018;29;20264;-89
2022/05/10 08:54:39;;;;;;;12.57;6.78;;;19.80;61.20;;;;;;4809629;29;20195;-90
2022/05/10 08:57:21;;;;;;;12.68;7.47;;;20.00;61.40;;;;;;4809764;29;20191;-88
2022/05/10 09:00:05;;;;;;;14.07;6.95;;;20.30;60.20;;;;;;4825892;29;20164;-88
2022/05/10 09:02:48;;;;;;;15.93;7.05;;;20.30;58.20;;;;;;4825665;29;20219;-89
2022/05/10 09:05:32;;;;;;;13.65;6.97;;;20.60;59.80;;;;;;4826395;29;20670;-90
2022/05/10 09:08:13;;;;;;;10.35;6.53;;;20.70;58.40;;;;;;4811458;29;20195;-92
2022/05/10 09:10:57;;;;;;;17.33;8.05;;;20.90;57.00;;;;;;4809940;29;20172;-91
2022/05/10 09:13:23;;;;;;;22.70;7.20;;;21.00;57.90;;;;;;4809465;29;20228;-92
2022/05/10 09:16:04;;;;;;;16.40;7.10;;;21.10;57.30;;;;;;4809497;29;20223;-91
2022/05/10 09:18:46;;;;;;;9.40;6.25;;;21.20;54.30;;;;;;4810297;29;20172;-91
2022/05/10 09:21:50;;;;;;;13.38;6.97;;;21.10;55.00;;;;;;4809744;29;20247;-90
2022/05/10 09:24:52;;;;;;;13.23;6.07;;;21.50;56.70;;;;;;4809073;29;20195;-91
2022/05/10 09:27:20;;;;;;;14.57;6.40;;;21.40;54.50;;;;;;4811150;29;20537;-90
2022/05/10 09:29:49;;;;;;;16.27;6.60;;;21.50;54.20;;;;;;4810542;29;20203;-92
2022/05/10 09:35:16;;;;;;;12.57;6.20;;;21.70;55.20;;;;;;4826466;29;20175;-90
2022/05/10 09:38:08;;;;;;;9.45;5.55;;;21.70;53.00;;;;;;4810989;29;20176;-88
2022/05/10 09:40:48;;;;;;;9.63;4.25;;;22.10;52.70;;;;;;4807417;29;20205;-88
2022/05/10 09:43:27;;;;;;;9.65;4.72;;;22.10;49.30;;;;;;4824846;29;20691;-88
2022/05/10 09:46:25;;;;;;;8.70;4.68;;;22.30;50.50;;;;;;4808726;29;20187;-88
2022/05/10 09:48:51;;;;;;;6.32;3.90;;;22.20;49.50;;;;;;4825268;29;20241;-88
2022/05/10 09:51:36;;;;;;;8.25;4.18;;;22.60;49.00;;;;;;4825186;29;20268;-88
2022/05/10 09:54:12;;;;;;;9.30;4.50;;;22.50;49.20;;;;;;4809107;29;20643;-88
2022/05/10 09:56:41;;;;;;;7.20;3.70;;;22.70;48.50;;;;;;4825071;29;20175;-87
2022/05/10 09:59:22;;;;;;;6.97;4.72;;;22.60;47.30;;;;;;4825311;29;20188;-87
2022/05/10 10:01:55;;;;;;;10.27;5.18;;;22.40;49.30;;;;;;4823739;29;20216;-88
2022/05/10 10:04:31;;;;;;;11.35;4.82;;;22.50;49.10;;;;;;4824958;29;20183;-88
2022/05/10 10:07:16;;;;;;;11.98;5.50;;;22.70;49.00;;;;;;4824857;29;20167;-88
2022/05/10 10:09:45;;;;;;;7.82;4.10;;;22.80;47.80;;;;;;4824965;29;20176;-87
2022/05/10 10:12:37;;;;;;;10.02;3.88;;;23.00;46.90;;;;;;4808254;29;20204;-88
2022/05/10 10:15:24;;;;;;;12.00;3.92;;;23.30;46.70;;;;;;4825401;29;20161;-88
2022/05/10 10:17:56;;;;;;;6.20;2.90;;;23.60;47.10;;;;;;4824544;29;20183;-88
2022/05/10 10:20:50;;;;;;;5.25;3.00;;;23.90;45.50;;;;;;4808611;29;20671;-88
2022/05/10 10:23:33;;;;;;;17.17;3.13;;;23.70;44.80;;;;;;4824699;29;20203;-88
2022/05/10 10:26:14;;;;;;;9.90;3.13;;;23.60;42.90;;;;;;4824648;29;20658;-87
2022/05/10 10:28:55;;;;;;;9.77;2.90;;;23.60;43.60;;;;;;4808425;29;20225;-87
2022/05/10 10:31:26;;;;;;;6.63;2.80;;;23.50;43.70;;;;;;4808592;29;20583;-87
2022/05/10 10:34:09;;;;;;;5.95;2.40;;;23.50;43.50;;;;;;4825778;29;20656;-88
2022/05/10 10:36:46;;;;;;;6.63;2.30;;;23.80;41.10;;;;;;4809743;29;20180;-88
2022/05/10 10:39:27;;;;;;;4.15;2.72;;;23.80;42.10;;;;;;4825935;29;20655;-88
2022/05/10 10:42:07;;;;;;;5.70;3.03;;;23.80;43.10;;;;;;4824980;29;20302;-89
2022/05/10 10:44:38;;;;;;;12.65;3.03;;;24.20;45.10;;;;;;4808765;29;20168;-88
2022/05/10 10:47:24;;;;;;;12.68;2.80;;;24.70;41.70;;;;;;4826097;29;20180;-87
2022/05/10 10:50:11;;;;;;;10.02;2.47;;;24.60;38.20;;;;;;4809656;29;20255;-88
2022/05/10 10:52:37;;;;;;;7.38;2.60;;;24.40;40.40;;;;;;4824844;29;20204;-87
2022/05/10 10:55:06;;;;;;;6.15;2.58;;;24.00;41.00;;;;;;4824613;29;20192;-89
2022/05/10 10:57:42;;;;;;;6.97;2.85;;;23.80;42.30;;;;;;4807855;29;20221;-88
2022/05/10 11:00:16;;;;;;;7.88;2.70;;;23.50;42.90;;;;;;4808065;29;20184;-87
2022/05/10 11:03:07;;;;;;;8.15;2.90;;;23.50;43.10;;;;;;4824393;29;20219;-87
2022/05/10 11:05:51;;;;;;;11.07;3.17;;;23.50;42.50;;;;;;4808130;29;20715;-87
2022/05/10 11:08:55;;;;;;;7.97;3.30;;;23.50;42.80;;;;;;4808253;29;20191;-87
2022/05/10 11:11:39;;;;;;;6.60;2.75;;;23.40;43.00;;;;;;4807495;29;20184;-87
2022/05/10 11:14:33;;;;;;;11.10;2.50;;;23.50;40.80;;;;;;4826493;29;20250;-87
2022/05/10 11:17:24;;;;;;;10.57;2.40;;;23.70;40.40;;;;;;4811324;29;20188;-87
2022/05/10 11:19:58;;;;;;;7.20;2.55;;;23.90;39.60;;;;;;4827353;29;20175;-88
2022/05/10 11:22:41;;;;;;;8.32;3.05;;;23.70;40.60;;;;;;4811104;29;20303;-87
2022/05/10 11:25:27;;;;;;;7.43;2.40;;;23.90;40.80;;;;;;4827674;29;20160;-87
2022/05/10 11:27:56;;;;;;;9.00;4.32;;;23.70;42.70;;;;;;4811310;29;20219;-87
2022/05/10 11:30:38;;;;;;;6.05;2.95;;;23.70;43.60;;;;;;4811018;29;20203;-88
2022/05/10 11:33:51;;;;;;;9.25;2.63;;;23.80;42.50;;;;;;4827081;29;20207;-88
2022/05/10 11:36:41;;;;;;;5.57;2.00;;;23.80;43.60;;;;;;4827395;29;20180;-88
2022/05/10 11:39:18;;;;;;;12.07;2.88;;;23.60;42.10;;;;;;4811431;29;20188;-88
2022/05/10 11:42:20;;;;;;;4.43;2.38;;;23.70;40.20;;;;;;4827364;29;20282;-87
2022/05/10 11:45:03;;;;;;;10.73;2.92;;;23.50;42.10;;;;;;4828623;29;20177;-88
2022/05/10 11:47:35;;;;;;;7.70;2.53;;;23.30;42.10;;;;;;4811125;29;20182;-86
2022/05/10 11:50:10;;;;;;;5.82;2.72;;;23.20;42.70;;;;;;4827284;29;20207;-88
2022/05/10 11:52:54;;;;;;;4.40;2.22;;;23.30;42.70;;;;;;4810786;29;20203;-87
2022/05/10 11:55:56;;;;;;;8.43;2.90;;;23.40;42.80;;;;;;4810457;29;20613;-87
2022/05/10 11:58:24;;;;;;;6.88;2.45;;;23.50;43.70;;;;;;4826860;29;20164;-89
2022/05/10 12:00:55;;;;;;;7.82;3.22;;;23.40;43.00;;;;;;4826816;29;20259;-89
2022/05/10 12:03:44;;;;;;;7.07;3.20;;;23.50;44.60;;;;;;4826552;29;20268;-89
2022/05/10 12:06:25;;;;;;;7.85;2.83;;;23.70;43.30;;;;;;4810228;29;20175;-89
2022/05/10 12:08:53;;;;;;;8.00;2.70;;;23.90;42.80;;;;;;4826615;29;20179;-89
2022/05/10 12:11:27;;;;;;;5.93;3.38;;;23.80;42.80;;;;;;4809984;29;20187;-89
2022/05/10 12:22:51;;;;;;;7.28;3.22;;;23.30;43.50;;;;;;4826282;29;20218;-89
2022/05/10 12:25:57;;;;;;;8.68;2.78;;;23.50;43.60;;;;;;4825316;29;20180;-89
2022/05/10 12:28:36;;;;;;;5.57;2.85;;;23.50;43.10;;;;;;4809759;29;20172;-89
2022/05/10 12:31:44;;;;;;;8.57;3.22;;;23.50;43.90;;;;;;4826182;29;20180;-89
2022/05/10 12:34:49;;;;;;;6.65;2.88;;;23.70;44.90;;;;;;4825619;29;20190;-89
2022/05/10 12:37:30;;;;;;;7.15;2.47;;;23.80;44.40;;;;;;4826126;29;20508;-89
2022/05/10 12:40:00;;;;;;;4.28;2.47;;;23.80;43.70;;;;;;4809619;29;20736;-90
2022/05/10 12:42:59;;;;;;;8.80;2.60;;;24.10;43.70;;;;;;4825814;29;20223;-89
2022/05/10 12:45:48;;;;;;;8.27;3.00;;;24.00;43.70;;;;;;4809624;29;20560;-91
2022/05/10 12:48:23;;;;;;;3.95;2.72;;;24.00;44.80;;;;;;4826201;29;20607;-89
2022/05/10 12:50:55;;;;;;;6.80;2.50;;;24.20;44.20;;;;;;4809346;29;20194;-89
2022/05/10 12:53:29;;;;;;;2.70;2.40;;;24.10;43.90;;;;;;4809223;29;20204;-89
2022/05/10 12:56:12;;;;;;;6.75;2.47;;;23.90;42.40;;;;;;4809614;29;20176;-90
2022/05/10 12:58:43;;;;;;;5.55;2.97;;;24.00;44.00;;;;;;4825985;29;20187;-89
2022/05/10 13:01:12;;;;;;;8.48;2.92;;;23.90;44.20;;;;;;4809152;29;20172;-89
2022/05/10 13:03:45;;;;;;;10.20;3.00;;;24.00;43.80;;;;;;4825914;29;20220;-89
2022/05/10 13:06:27;;;;;;;7.93;2.75;;;24.00;43.00;;;;;;4809619;29;20263;-89
2022/05/10 13:08:58;;;;;;;7.25;2.70;;;23.90;44.50;;;;;;4809109;29;20230;-88
2022/05/10 13:11:28;;;;;;;6.05;2.92;;;23.70;44.60;;;;;;4825431;29;20192;-88
2022/05/10 13:13:55;;;;;;;8.52;3.40;;;23.60;45.00;;;;;;4808969;29;20215;-88
2022/05/10 13:16:21;;;;;;;7.97;3.17;;;23.70;44.70;;;;;;4825626;29;20208;-88
2022/05/10 13:18:49;;;;;;;9.65;3.22;;;23.50;45.50;;;;;;4825316;29;20211;-89
2022/05/10 13:21:24;;;;;;;15.45;4.00;;;23.50;44.90;;;;;;4808844;29;20576;-88
2022/05/10 13:23:52;;;;;;;7.90;3.33;;;23.40;44.30;;;;;;4808724;29;20282;-88
2022/05/10 13:26:18;;;;;;;13.75;3.38;;;23.30;45.00;;;;;;4825245;29;20237;-88
2022/05/10 13:28:55;;;;;;;10.05;4.10;;;22.70;45.80;;;;;;4825223;29;20180;-87